sensor_id;sensor_type;location;lat;lon;timestamp;P1;durP1;ratioP1;P2;durP2;ratioP2
56037;SDS011;41907;47.848;9.000;2022-10-31T00:02:05;13.13;;;6.07;;
56037;SDS011;41907;47.848;9.000;2022-10-31T00:04:31;11.15;;;6.70;;
56037;SDS011;41907;47.848;9.000;2022-10-31T00:06:56;11.43;;;5.60;;
56037;SDS011;41907;47.848;9.000;2022-10-31T00:09:21;11.00;;;6.70;;
56037;SDS011;41907;47.848;9.000;2022-10-31T00:11:47;14.27;;;5.70;;
56037;SDS011;41907;47.848;9.000;2022-10-31T00:14:12;8.43;;;5.05;;
56037;SDS011;41907;47.848;9.000;2022-10-31T00:16:37;8.88;;;5.30;;
56037;SDS011;41907;47.848;9.000;2022-10-31T00:19:05;11.05;;;5.05;;
56037;SDS011;41907;47.848;9.000;2022-10-31T00:21:31;12.23;;;5.57;;
56037;SDS011;41907;47.848;9.000;2022-10-31T00:23:57;10.07;;;5.20;;
56037;SDS011;41907;47.848;9.000;2022-10-31T00:26:23;11.40;;;5.03;;
56037;SDS011;41907;47.848;9.000;2022-10-31T00:28:49;10.98;;;5.57;;
56037;SDS011;41907;47.848;9.000;2022-10-31T00:31:16;6.68;;;4.43;;
56037;SDS011;41907;47.848;9.000;2022-10-31T00:33:42;10.18;;;4.75;;
56037;SDS011;41907;47.848;9.000;2022-10-31T00:36:09;11.35;;;5.15;;
56037;SDS011;41907;47.848;9.000;2022-10-31T00:38:37;12.10;;;4.75;;
56037;SDS011;41907;47.848;9.000;2022-10-31T00:41:02;9.13;;;4.72;;
56037;SDS011;41907;47.848;9.000;2022-10-31T00:43:27;8.80;;;4.63;;
56037;SDS011;41907;47.848;9.000;2022-10-31T00:45:53;11.95;;;4.22;;
56037;SDS011;41907;47.848;9.000;2022-10-31T00:48:18;8.15;;;4.30;;
56037;SDS011;41907;47.848;9.000;2022-10-31T00:50:43;12.15;;;4.07;;
56037;SDS011;41907;47.848;9.000;2022-10-31T00:53:09;10.02;;;4.57;;
56037;SDS011;41907;47.848;9.000;2022-10-31T00:55:34;9.32;;;4.72;;
56037;SDS011;41907;47.848;9.000;2022-10-31T00:57:59;6.43;;;3.92;;
56037;SDS011;41907;47.848;9.000;2022-10-31T01:00:25;10.40;;;4.38;;
56037;SDS011;41907;47.848;9.000;2022-10-31T01:02:51;8.32;;;4.53;;
56037;SDS011;41907;47.848;9.000;2022-10-31T01:05:16;6.22;;;3.78;;
56037;SDS011;41907;47.848;9.000;2022-10-31T01:07:42;9.75;;;4.43;;
56037;SDS011;41907;47.848;9.000;2022-10-31T01:10:08;11.27;;;4.75;;
56037;SDS011;41907;47.848;9.000;2022-10-31T01:12:42;8.07;;;3.95;;
56037;SDS011;41907;47.848;9.000;2022-10-31T01:15:09;7.63;;;4.65;;
56037;SDS011;41907;47.848;9.000;2022-10-31T01:17:36;9.90;;;3.78;;
56037;SDS011;41907;47.848;9.000;2022-10-31T01:20:02;11.80;;;4.20;;
56037;SDS011;41907;47.848;9.000;2022-10-31T01:22:29;7.05;;;4.00;;
56037;SDS011;41907;47.848;9.000;2022-10-31T01:24:54;6.90;;;4.25;;
56037;SDS011;41907;47.848;9.000;2022-10-31T01:27:19;4.93;;;3.63;;
56037;SDS011;41907;47.848;9.000;2022-10-31T01:29:45;10.55;;;5.30;;
56037;SDS011;41907;47.848;9.000;2022-10-31T01:32:10;6.10;;;3.40;;
56037;SDS011;41907;47.848;9.000;2022-10-31T01:34:36;8.15;;;4.00;;
56037;SDS011;41907;47.848;9.000;2022-10-31T01:37:01;9.20;;;4.13;;
56037;SDS011;41907;47.848;9.000;2022-10-31T01:39:26;7.07;;;4.13;;
56037;SDS011;41907;47.848;9.000;2022-10-31T01:41:53;8.50;;;3.88;;
56037;SDS011;41907;47.848;9.000;2022-10-31T01:47:04;5.68;;;3.80;;
56037;SDS011;41907;47.848;9.000;2022-10-31T01:52:09;8.73;;;3.85;;
56037;SDS011;41907;47.848;9.000;2022-10-31T01:54:45;8.35;;;4.07;;
56037;SDS011;41907;47.848;9.000;2022-10-31T01:57:15;6.55;;;3.72;;
56037;SDS011;41907;47.848;9.000;2022-10-31T01:59:44;8.35;;;4.35;;
56037;SDS011;41907;47.848;9.000;2022-10-31T02:02:13;11.00;;;4.68;;
56037;SDS011;41907;47.848;9.000;2022-10-31T02:04:41;8.15;;;4.10;;
56037;SDS011;41907;47.848;9.000;2022-10-31T02:07:12;7.68;;;4.35;;
56037;SDS011;41907;47.848;9.000;2022-10-31T02:09:41;8.02;;;4.38;;
56037;SDS011;41907;47.848;9.000;2022-10-31T02:12:08;8.55;;;3.88;;
56037;SDS011;41907;47.848;9.000;2022-10-31T02:14:35;8.63;;;4.95;;
56037;SDS011;41907;47.848;9.000;2022-10-31T02:17:02;8.18;;;3.90;;
56037;SDS011;41907;47.848;9.000;2022-10-31T02:19:37;9.48;;;4.90;;
56037;SDS011;41907;47.848;9.000;2022-10-31T02:25:07;12.13;;;3.88;;
56037;SDS011;41907;47.848;9.000;2022-10-31T02:47:06;10.82;;;4.22;;
56037;SDS011;41907;47.848;9.000;2022-10-31T02:49:45;8.07;;;4.63;;
56037;SDS011;41907;47.848;9.000;2022-10-31T02:52:26;9.07;;;5.28;;
56037;SDS011;41907;47.848;9.000;2022-10-31T02:54:53;11.32;;;4.72;;
56037;SDS011;41907;47.848;9.000;2022-10-31T02:57:20;14.38;;;5.78;;
56037;SDS011;41907;47.848;9.000;2022-10-31T02:59:55;20.30;;;6.68;;
56037;SDS011;41907;47.848;9.000;2022-10-31T03:07:30;17.58;;;7.60;;
56037;SDS011;41907;47.848;9.000;2022-10-31T03:10:19;25.77;;;8.37;;
56037;SDS011;41907;47.848;9.000;2022-10-31T03:15:37;36.97;;;10.07;;
56037;SDS011;41907;47.848;9.000;2022-10-31T03:18:09;34.35;;;9.43;;
56037;SDS011;41907;47.848;9.000;2022-10-31T03:20:52;27.98;;;9.32;;
56037;SDS011;41907;47.848;9.000;2022-10-31T03:23:23;28.42;;;10.13;;
56037;SDS011;41907;47.848;9.000;2022-10-31T03:25:50;36.60;;;10.73;;
56037;SDS011;41907;47.848;9.000;2022-10-31T03:28:20;35.78;;;11.18;;
56037;SDS011;41907;47.848;9.000;2022-10-31T03:30:50;31.80;;;10.13;;
56037;SDS011;41907;47.848;9.000;2022-10-31T03:33:18;31.70;;;11.07;;
56037;SDS011;41907;47.848;9.000;2022-10-31T03:35:52;26.73;;;10.73;;
56037;SDS011;41907;47.848;9.000;2022-10-31T03:38:22;31.75;;;12.23;;
56037;SDS011;41907;47.848;9.000;2022-10-31T03:40:47;29.48;;;13.60;;
56037;SDS011;41907;47.848;9.000;2022-10-31T03:43:17;33.05;;;14.27;;
56037;SDS011;41907;47.848;9.000;2022-10-31T03:45:47;33.95;;;14.10;;
56037;SDS011;41907;47.848;9.000;2022-10-31T03:48:13;35.28;;;13.77;;
56037;SDS011;41907;47.848;9.000;2022-10-31T03:56:02;33.10;;;13.48;;
56037;SDS011;41907;47.848;9.000;2022-10-31T03:58:41;31.98;;;13.55;;
56037;SDS011;41907;47.848;9.000;2022-10-31T04:01:18;31.05;;;13.75;;
56037;SDS011;41907;47.848;9.000;2022-10-31T04:03:46;27.55;;;13.63;;
56037;SDS011;41907;47.848;9.000;2022-10-31T04:06:12;29.30;;;13.38;;
56037;SDS011;41907;47.848;9.000;2022-10-31T04:08:43;25.52;;;12.45;;
56037;SDS011;41907;47.848;9.000;2022-10-31T04:11:13;29.33;;;11.98;;
56037;SDS011;41907;47.848;9.000;2022-10-31T04:13:43;28.02;;;12.40;;
56037;SDS011;41907;47.848;9.000;2022-10-31T04:16:10;20.92;;;10.35;;
56037;SDS011;41907;47.848;9.000;2022-10-31T04:18:36;26.13;;;10.25;;
56037;SDS011;41907;47.848;9.000;2022-10-31T04:21:02;18.02;;;9.48;;
56037;SDS011;41907;47.848;9.000;2022-10-31T04:23:30;22.38;;;9.32;;
56037;SDS011;41907;47.848;9.000;2022-10-31T04:25:56;18.55;;;8.35;;
56037;SDS011;41907;47.848;9.000;2022-10-31T04:28:21;17.77;;;9.68;;
56037;SDS011;41907;47.848;9.000;2022-10-31T04:30:47;19.88;;;8.52;;
56037;SDS011;41907;47.848;9.000;2022-10-31T04:33:12;17.50;;;8.18;;
56037;SDS011;41907;47.848;9.000;2022-10-31T04:35:38;22.85;;;8.75;;
56037;SDS011;41907;47.848;9.000;2022-10-31T04:38:03;15.68;;;8.48;;
56037;SDS011;41907;47.848;9.000;2022-10-31T04:40:28;17.88;;;9.20;;
56037;SDS011;41907;47.848;9.000;2022-10-31T04:42:57;17.45;;;8.90;;
56037;SDS011;41907;47.848;9.000;2022-10-31T04:45:22;19.83;;;9.55;;
56037;SDS011;41907;47.848;9.000;2022-10-31T04:47:47;22.15;;;10.32;;
56037;SDS011;41907;47.848;9.000;2022-10-31T04:50:13;29.90;;;11.90;;
56037;SDS011;41907;47.848;9.000;2022-10-31T04:52:39;27.25;;;10.88;;
56037;SDS011;41907;47.848;9.000;2022-10-31T04:55:05;25.48;;;10.50;;
56037;SDS011;41907;47.848;9.000;2022-10-31T04:57:31;27.38;;;11.18;;
56037;SDS011;41907;47.848;9.000;2022-10-31T04:59:56;27.38;;;11.88;;
56037;SDS011;41907;47.848;9.000;2022-10-31T05:02:21;31.55;;;12.13;;
56037;SDS011;41907;47.848;9.000;2022-10-31T05:04:46;38.40;;;12.85;;
56037;SDS011;41907;47.848;9.000;2022-10-31T05:07:12;35.10;;;12.52;;
56037;SDS011;41907;47.848;9.000;2022-10-31T05:09:37;26.73;;;11.93;;
56037;SDS011;41907;47.848;9.000;2022-10-31T05:12:02;24.88;;;12.13;;
56037;SDS011;41907;47.848;9.000;2022-10-31T05:14:28;34.70;;;11.75;;
56037;SDS011;41907;47.848;9.000;2022-10-31T05:16:53;27.13;;;11.20;;
56037;SDS011;41907;47.848;9.000;2022-10-31T05:19:19;29.52;;;11.50;;
56037;SDS011;41907;47.848;9.000;2022-10-31T05:21:44;27.20;;;11.48;;
56037;SDS011;41907;47.848;9.000;2022-10-31T05:24:09;25.17;;;11.52;;
56037;SDS011;41907;47.848;9.000;2022-10-31T05:26:35;23.17;;;11.93;;
56037;SDS011;41907;47.848;9.000;2022-10-31T05:29:00;19.58;;;11.02;;
56037;SDS011;41907;47.848;9.000;2022-10-31T05:31:25;21.90;;;9.80;;
56037;SDS011;41907;47.848;9.000;2022-10-31T05:33:50;18.40;;;9.85;;
56037;SDS011;41907;47.848;9.000;2022-10-31T05:36:16;21.75;;;9.55;;
56037;SDS011;41907;47.848;9.000;2022-10-31T05:38:41;14.75;;;9.35;;
56037;SDS011;41907;47.848;9.000;2022-10-31T05:41:07;19.15;;;9.88;;
56037;SDS011;41907;47.848;9.000;2022-10-31T05:43:32;21.08;;;8.95;;
56037;SDS011;41907;47.848;9.000;2022-10-31T05:45:57;17.80;;;9.68;;
56037;SDS011;41907;47.848;9.000;2022-10-31T05:48:23;18.73;;;9.20;;
56037;SDS011;41907;47.848;9.000;2022-10-31T05:50:48;19.95;;;9.23;;
56037;SDS011;41907;47.848;9.000;2022-10-31T05:53:14;20.40;;;9.13;;
56037;SDS011;41907;47.848;9.000;2022-10-31T05:55:40;23.90;;;10.10;;
56037;SDS011;41907;47.848;9.000;2022-10-31T05:58:08;23.42;;;10.18;;
56037;SDS011;41907;47.848;9.000;2022-10-31T06:00:33;21.33;;;9.00;;
56037;SDS011;41907;47.848;9.000;2022-10-31T06:03:03;20.48;;;9.50;;
56037;SDS011;41907;47.848;9.000;2022-10-31T06:05:30;17.58;;;8.32;;
56037;SDS011;41907;47.848;9.000;2022-10-31T06:07:57;23.42;;;10.45;;
56037;SDS011;41907;47.848;9.000;2022-10-31T06:10:23;23.20;;;10.02;;
56037;SDS011;41907;47.848;9.000;2022-10-31T06:12:49;20.33;;;9.70;;
56037;SDS011;41907;47.848;9.000;2022-10-31T06:15:14;28.27;;;9.48;;
56037;SDS011;41907;47.848;9.000;2022-10-31T06:17:41;31.38;;;9.98;;
56037;SDS011;41907;47.848;9.000;2022-10-31T06:20:06;18.70;;;9.75;;
56037;SDS011;41907;47.848;9.000;2022-10-31T06:22:32;16.17;;;8.93;;
56037;SDS011;41907;47.848;9.000;2022-10-31T06:24:57;16.63;;;9.43;;
56037;SDS011;41907;47.848;9.000;2022-10-31T06:27:23;17.13;;;8.32;;
56037;SDS011;41907;47.848;9.000;2022-10-31T06:29:49;16.27;;;7.43;;
56037;SDS011;41907;47.848;9.000;2022-10-31T06:32:14;10.15;;;5.80;;
56037;SDS011;41907;47.848;9.000;2022-10-31T06:34:40;10.25;;;5.90;;
56037;SDS011;41907;47.848;9.000;2022-10-31T06:37:07;8.25;;;4.85;;
56037;SDS011;41907;47.848;9.000;2022-10-31T06:39:33;9.25;;;5.13;;
56037;SDS011;41907;47.848;9.000;2022-10-31T06:41:58;8.77;;;4.78;;
56037;SDS011;41907;47.848;9.000;2022-10-31T06:44:24;11.02;;;5.88;;
56037;SDS011;41907;47.848;9.000;2022-10-31T06:46:49;12.60;;;6.47;;
56037;SDS011;41907;47.848;9.000;2022-10-31T06:49:14;10.57;;;5.80;;
56037;SDS011;41907;47.848;9.000;2022-10-31T06:51:39;12.90;;;6.35;;
56037;SDS011;41907;47.848;9.000;2022-10-31T06:54:05;11.38;;;7.38;;
56037;SDS011;41907;47.848;9.000;2022-10-31T06:56:30;11.32;;;7.43;;
56037;SDS011;41907;47.848;9.000;2022-10-31T06:58:56;10.00;;;6.07;;
56037;SDS011;41907;47.848;9.000;2022-10-31T07:01:21;12.30;;;7.18;;
56037;SDS011;41907;47.848;9.000;2022-10-31T07:03:46;12.65;;;7.13;;
56037;SDS011;41907;47.848;9.000;2022-10-31T07:06:12;16.05;;;7.75;;
56037;SDS011;41907;47.848;9.000;2022-10-31T07:08:37;14.13;;;7.15;;
56037;SDS011;41907;47.848;9.000;2022-10-31T07:11:02;14.63;;;7.40;;
56037;SDS011;41907;47.848;9.000;2022-10-31T07:13:28;17.42;;;8.45;;
56037;SDS011;41907;47.848;9.000;2022-10-31T07:15:54;17.27;;;8.65;;
56037;SDS011;41907;47.848;9.000;2022-10-31T07:18:26;16.33;;;9.02;;
56037;SDS011;41907;47.848;9.000;2022-10-31T07:20:52;16.50;;;8.60;;
56037;SDS011;41907;47.848;9.000;2022-10-31T07:23:18;14.15;;;8.50;;
56037;SDS011;41907;47.848;9.000;2022-10-31T07:25:43;13.95;;;7.60;;
56037;SDS011;41907;47.848;9.000;2022-10-31T07:28:09;15.25;;;6.82;;
56037;SDS011;41907;47.848;9.000;2022-10-31T07:30:35;12.85;;;6.13;;
56037;SDS011;41907;47.848;9.000;2022-10-31T07:33:01;9.27;;;5.30;;
56037;SDS011;41907;47.848;9.000;2022-10-31T07:35:27;13.38;;;5.57;;
56037;SDS011;41907;47.848;9.000;2022-10-31T07:37:53;11.35;;;5.47;;
56037;SDS011;41907;47.848;9.000;2022-10-31T07:40:20;8.90;;;5.28;;
56037;SDS011;41907;47.848;9.000;2022-10-31T07:42:47;10.02;;;4.75;;
56037;SDS011;41907;47.848;9.000;2022-10-31T07:45:15;7.97;;;5.03;;
56037;SDS011;41907;47.848;9.000;2022-10-31T07:47:43;8.02;;;4.45;;
56037;SDS011;41907;47.848;9.000;2022-10-31T07:50:14;8.48;;;4.80;;
56037;SDS011;41907;47.848;9.000;2022-10-31T07:52:42;8.07;;;5.38;;
56037;SDS011;41907;47.848;9.000;2022-10-31T07:55:07;10.57;;;5.57;;
56037;SDS011;41907;47.848;9.000;2022-10-31T07:57:36;8.90;;;5.03;;
56037;SDS011;41907;47.848;9.000;2022-10-31T08:00:05;11.02;;;4.97;;
56037;SDS011;41907;47.848;9.000;2022-10-31T08:02:32;8.77;;;5.40;;
56037;SDS011;41907;47.848;9.000;2022-10-31T08:04:57;7.75;;;5.35;;
56037;SDS011;41907;47.848;9.000;2022-10-31T08:07:24;9.07;;;5.70;;
56037;SDS011;41907;47.848;9.000;2022-10-31T08:09:50;9.80;;;6.47;;
56037;SDS011;41907;47.848;9.000;2022-10-31T08:12:15;8.35;;;5.80;;
56037;SDS011;41907;47.848;9.000;2022-10-31T08:14:41;8.88;;;6.47;;
56037;SDS011;41907;47.848;9.000;2022-10-31T08:17:06;8.90;;;5.43;;
56037;SDS011;41907;47.848;9.000;2022-10-31T08:19:32;11.65;;;6.55;;
56037;SDS011;41907;47.848;9.000;2022-10-31T08:21:57;8.63;;;6.43;;
56037;SDS011;41907;47.848;9.000;2022-10-31T08:24:23;9.18;;;6.43;;
56037;SDS011;41907;47.848;9.000;2022-10-31T08:26:49;9.13;;;6.30;;
56037;SDS011;41907;47.848;9.000;2022-10-31T08:29:14;13.32;;;7.38;;
56037;SDS011;41907;47.848;9.000;2022-10-31T08:31:40;12.02;;;6.75;;
56037;SDS011;41907;47.848;9.000;2022-10-31T08:34:06;10.85;;;7.47;;
56037;SDS011;41907;47.848;9.000;2022-10-31T08:36:32;16.08;;;9.23;;
56037;SDS011;41907;47.848;9.000;2022-10-31T08:38:58;16.90;;;9.30;;
56037;SDS011;41907;47.848;9.000;2022-10-31T08:41:23;36.65;;;15.80;;
56037;SDS011;41907;47.848;9.000;2022-10-31T08:43:48;50.63;;;21.10;;
56037;SDS011;41907;47.848;9.000;2022-10-31T08:46:14;57.00;;;21.83;;
56037;SDS011;41907;47.848;9.000;2022-10-31T08:48:39;83.32;;;30.33;;
56037;SDS011;41907;47.848;9.000;2022-10-31T08:51:05;82.97;;;32.63;;
56037;SDS011;41907;47.848;9.000;2022-10-31T08:53:31;103.75;;;38.35;;
56037;SDS011;41907;47.848;9.000;2022-10-31T08:55:56;80.82;;;30.65;;
56037;SDS011;41907;47.848;9.000;2022-10-31T08:58:22;69.85;;;27.90;;
56037;SDS011;41907;47.848;9.000;2022-10-31T09:00:51;85.43;;;30.02;;
56037;SDS011;41907;47.848;9.000;2022-10-31T09:03:19;67.45;;;24.90;;
56037;SDS011;41907;47.848;9.000;2022-10-31T09:05:47;75.82;;;26.25;;
56037;SDS011;41907;47.848;9.000;2022-10-31T09:08:13;80.35;;;26.27;;
56037;SDS011;41907;47.848;9.000;2022-10-31T09:10:39;83.15;;;27.00;;
56037;SDS011;41907;47.848;9.000;2022-10-31T09:13:15;134.73;;;46.72;;
56037;SDS011;41907;47.848;9.000;2022-10-31T09:15:43;135.82;;;48.53;;
56037;SDS011;41907;47.848;9.000;2022-10-31T09:18:10;98.50;;;36.53;;
56037;SDS011;41907;47.848;9.000;2022-10-31T09:20:36;79.80;;;31.65;;
56037;SDS011;41907;47.848;9.000;2022-10-31T09:23:04;77.55;;;28.50;;
56037;SDS011;41907;47.848;9.000;2022-10-31T09:25:37;80.90;;;29.95;;
56037;SDS011;41907;47.848;9.000;2022-10-31T09:28:03;90.68;;;35.60;;
56037;SDS011;41907;47.848;9.000;2022-10-31T09:30:31;81.03;;;29.08;;
56037;SDS011;41907;47.848;9.000;2022-10-31T09:32:58;72.10;;;28.00;;
56037;SDS011;41907;47.848;9.000;2022-10-31T09:35:24;56.95;;;24.23;;
56037;SDS011;41907;47.848;9.000;2022-10-31T09:37:53;46.30;;;23.15;;
56037;SDS011;41907;47.848;9.000;2022-10-31T09:40:20;50.42;;;21.27;;
56037;SDS011;41907;47.848;9.000;2022-10-31T09:45:29;56.72;;;25.80;;
56037;SDS011;41907;47.848;9.000;2022-10-31T09:50:22;256.48;;;89.85;;
56037;SDS011;41907;47.848;9.000;2022-10-31T09:52:57;211.57;;;80.28;;
56037;SDS011;41907;47.848;9.000;2022-10-31T09:55:47;219.02;;;80.25;;
56037;SDS011;41907;47.848;9.000;2022-10-31T09:58:16;210.65;;;85.35;;
56037;SDS011;41907;47.848;9.000;2022-10-31T10:00:45;195.90;;;72.78;;
56037;SDS011;41907;47.848;9.000;2022-10-31T10:08:39;104.55;;;47.03;;
56037;SDS011;41907;47.848;9.000;2022-10-31T10:13:55;114.70;;;49.53;;
56037;SDS011;41907;47.848;9.000;2022-10-31T10:16:39;147.30;;;61.97;;
56037;SDS011;41907;47.848;9.000;2022-10-31T10:32:24;49.92;;;25.45;;
56037;SDS011;41907;47.848;9.000;2022-10-31T10:34:58;47.28;;;25.25;;
56037;SDS011;41907;47.848;9.000;2022-10-31T10:37:36;54.95;;;27.92;;
56037;SDS011;41907;47.848;9.000;2022-10-31T10:48:49;61.00;;;32.10;;
56037;SDS011;41907;47.848;9.000;2022-10-31T10:59:52;52.75;;;27.80;;
56037;SDS011;41907;47.848;9.000;2022-10-31T11:02:25;60.65;;;30.95;;
56037;SDS011;41907;47.848;9.000;2022-10-31T11:04:52;33.45;;;18.45;;
56037;SDS011;41907;47.848;9.000;2022-10-31T11:07:25;19.90;;;12.32;;
56037;SDS011;41907;47.848;9.000;2022-10-31T11:10:03;18.40;;;12.25;;
56037;SDS011;41907;47.848;9.000;2022-10-31T11:12:31;19.55;;;12.05;;
56037;SDS011;41907;47.848;9.000;2022-10-31T11:15:02;39.25;;;20.48;;
56037;SDS011;41907;47.848;9.000;2022-10-31T11:17:34;29.83;;;16.17;;
56037;SDS011;41907;47.848;9.000;2022-10-31T11:22:36;101.43;;;36.13;;
56037;SDS011;41907;47.848;9.000;2022-10-31T11:25:11;72.10;;;29.77;;
56037;SDS011;41907;47.848;9.000;2022-10-31T11:28:04;50.47;;;24.55;;
56037;SDS011;41907;47.848;9.000;2022-10-31T11:30:50;50.15;;;23.77;;
56037;SDS011;41907;47.848;9.000;2022-10-31T11:33:19;42.93;;;20.90;;
56037;SDS011;41907;47.848;9.000;2022-10-31T11:35:49;21.23;;;13.10;;
56037;SDS011;41907;47.848;9.000;2022-10-31T11:38:18;21.88;;;12.45;;
56037;SDS011;41907;47.848;9.000;2022-10-31T11:40:58;21.77;;;12.30;;
56037;SDS011;41907;47.848;9.000;2022-10-31T11:43:30;26.73;;;14.30;;
56037;SDS011;41907;47.848;9.000;2022-10-31T11:45:55;23.95;;;13.38;;
56037;SDS011;41907;47.848;9.000;2022-10-31T11:48:22;40.15;;;18.15;;
56037;SDS011;41907;47.848;9.000;2022-10-31T11:50:54;33.03;;;16.50;;
56037;SDS011;41907;47.848;9.000;2022-10-31T11:53:26;28.88;;;15.60;;
56037;SDS011;41907;47.848;9.000;2022-10-31T11:56:05;18.15;;;11.90;;
56037;SDS011;41907;47.848;9.000;2022-10-31T11:58:37;21.90;;;13.35;;
56037;SDS011;41907;47.848;9.000;2022-10-31T12:01:02;24.42;;;14.07;;
56037;SDS011;41907;47.848;9.000;2022-10-31T12:03:33;31.08;;;15.68;;
56037;SDS011;41907;47.848;9.000;2022-10-31T12:08:43;31.05;;;17.40;;
56037;SDS011;41907;47.848;9.000;2022-10-31T12:14:03;31.25;;;15.68;;
56037;SDS011;41907;47.848;9.000;2022-10-31T12:17:14;21.83;;;12.88;;
56037;SDS011;41907;47.848;9.000;2022-10-31T12:19:36;30.35;;;15.98;;
56037;SDS011;41907;47.848;9.000;2022-10-31T12:22:13;30.23;;;15.80;;
56037;SDS011;41907;47.848;9.000;2022-10-31T12:30:15;23.23;;;13.93;;
56037;SDS011;41907;47.848;9.000;2022-10-31T12:40:58;30.08;;;17.25;;
56037;SDS011;41907;47.848;9.000;2022-10-31T12:48:54;40.40;;;19.48;;
56037;SDS011;41907;47.848;9.000;2022-10-31T12:51:40;40.38;;;17.60;;
56037;SDS011;41907;47.848;9.000;2022-10-31T12:59:38;33.50;;;16.48;;
56037;SDS011;41907;47.848;9.000;2022-10-31T13:05:15;34.53;;;16.35;;
56037;SDS011;41907;47.848;9.000;2022-10-31T13:13:50;93.90;;;40.00;;
56037;SDS011;41907;47.848;9.000;2022-10-31T13:16:22;109.80;;;44.22;;
56037;SDS011;41907;47.848;9.000;2022-10-31T13:21:44;96.43;;;40.47;;
56037;SDS011;41907;47.848;9.000;2022-10-31T13:24:23;101.35;;;45.45;;
56037;SDS011;41907;47.848;9.000;2022-10-31T13:26:57;89.80;;;40.27;;
56037;SDS011;41907;47.848;9.000;2022-10-31T13:29:28;100.85;;;48.13;;
56037;SDS011;41907;47.848;9.000;2022-10-31T13:31:58;85.60;;;41.28;;
56037;SDS011;41907;47.848;9.000;2022-10-31T13:34:27;86.78;;;40.72;;
56037;SDS011;41907;47.848;9.000;2022-10-31T13:39:44;88.88;;;45.40;;
56037;SDS011;41907;47.848;9.000;2022-10-31T13:42:34;77.05;;;39.30;;
56037;SDS011;41907;47.848;9.000;2022-10-31T13:45:13;67.88;;;39.47;;
56037;SDS011;41907;47.848;9.000;2022-10-31T13:47:42;65.47;;;34.58;;
56037;SDS011;41907;47.848;9.000;2022-10-31T13:52:42;49.22;;;27.77;;
56037;SDS011;41907;47.848;9.000;2022-10-31T13:55:19;46.88;;;26.73;;
56037;SDS011;41907;47.848;9.000;2022-10-31T13:58:00;28.02;;;18.88;;
56037;SDS011;41907;47.848;9.000;2022-10-31T14:00:29;28.80;;;18.60;;
56037;SDS011;41907;47.848;9.000;2022-10-31T14:02:59;31.13;;;19.25;;
56037;SDS011;41907;47.848;9.000;2022-10-31T14:05:26;32.70;;;19.60;;
56037;SDS011;41907;47.848;9.000;2022-10-31T14:07:55;30.75;;;19.90;;
56037;SDS011;41907;47.848;9.000;2022-10-31T14:10:24;28.38;;;19.45;;
56037;SDS011;41907;47.848;9.000;2022-10-31T14:12:53;32.17;;;19.83;;
56037;SDS011;41907;47.848;9.000;2022-10-31T14:15:28;24.30;;;16.60;;
56037;SDS011;41907;47.848;9.000;2022-10-31T14:17:54;20.17;;;13.57;;
56037;SDS011;41907;47.848;9.000;2022-10-31T14:28:51;43.10;;;26.25;;
56037;SDS011;41907;47.848;9.000;2022-10-31T14:51:47;31.92;;;17.55;;
56037;SDS011;41907;47.848;9.000;2022-10-31T14:54:16;36.50;;;19.92;;
56037;SDS011;41907;47.848;9.000;2022-10-31T14:56:55;32.67;;;18.52;;
56037;SDS011;41907;47.848;9.000;2022-10-31T14:59:28;36.60;;;19.38;;
56037;SDS011;41907;47.848;9.000;2022-10-31T15:01:57;34.15;;;19.10;;
56037;SDS011;41907;47.848;9.000;2022-10-31T15:04:26;36.72;;;19.67;;
56037;SDS011;41907;47.848;9.000;2022-10-31T15:07:47;39.95;;;21.20;;
56037;SDS011;41907;47.848;9.000;2022-10-31T15:09:44;38.83;;;20.92;;
56037;SDS011;41907;47.848;9.000;2022-10-31T15:12:23;37.75;;;21.92;;
56037;SDS011;41907;47.848;9.000;2022-10-31T15:14:50;35.63;;;20.67;;
56037;SDS011;41907;47.848;9.000;2022-10-31T15:17:16;34.60;;;19.30;;
56037;SDS011;41907;47.848;9.000;2022-10-31T15:19:42;42.17;;;22.92;;
56037;SDS011;41907;47.848;9.000;2022-10-31T15:22:10;41.30;;;22.70;;
56037;SDS011;41907;47.848;9.000;2022-10-31T15:24:40;36.65;;;21.70;;
56037;SDS011;41907;47.848;9.000;2022-10-31T15:27:10;32.35;;;19.10;;
56037;SDS011;41907;47.848;9.000;2022-10-31T15:29:46;33.72;;;20.13;;
56037;SDS011;41907;47.848;9.000;2022-10-31T15:32:20;32.17;;;17.48;;
56037;SDS011;41907;47.848;9.000;2022-10-31T15:34:50;31.17;;;17.35;;
56037;SDS011;41907;47.848;9.000;2022-10-31T15:37:17;29.33;;;17.05;;
56037;SDS011;41907;47.848;9.000;2022-10-31T15:39:45;33.92;;;18.35;;
56037;SDS011;41907;47.848;9.000;2022-10-31T15:42:18;30.30;;;18.33;;
56037;SDS011;41907;47.848;9.000;2022-10-31T15:44:48;28.23;;;17.52;;
56037;SDS011;41907;47.848;9.000;2022-10-31T15:47:20;27.30;;;16.80;;
56037;SDS011;41907;47.848;9.000;2022-10-31T15:49:53;31.65;;;17.63;;
56037;SDS011;41907;47.848;9.000;2022-10-31T15:52:34;30.20;;;18.63;;
56037;SDS011;41907;47.848;9.000;2022-10-31T15:55:05;33.25;;;19.08;;
56037;SDS011;41907;47.848;9.000;2022-10-31T15:57:45;31.95;;;19.05;;
56037;SDS011;41907;47.848;9.000;2022-10-31T16:00:26;29.35;;;17.90;;
56037;SDS011;41907;47.848;9.000;2022-10-31T16:03:02;28.73;;;17.75;;
56037;SDS011;41907;47.848;9.000;2022-10-31T16:05:35;30.52;;;17.05;;
56037;SDS011;41907;47.848;9.000;2022-10-31T16:08:03;28.05;;;16.25;;
56037;SDS011;41907;47.848;9.000;2022-10-31T16:10:31;27.67;;;15.80;;
56037;SDS011;41907;47.848;9.000;2022-10-31T16:12:59;25.67;;;16.33;;
56037;SDS011;41907;47.848;9.000;2022-10-31T16:15:26;22.60;;;14.05;;
56037;SDS011;41907;47.848;9.000;2022-10-31T16:17:52;32.50;;;12.85;;
56037;SDS011;41907;47.848;9.000;2022-10-31T16:20:22;25.13;;;17.55;;
56037;SDS011;41907;47.848;9.000;2022-10-31T16:22:51;26.27;;;16.15;;
56037;SDS011;41907;47.848;9.000;2022-10-31T16:28:17;38.85;;;25.50;;
56037;SDS011;41907;47.848;9.000;2022-10-31T16:30:49;41.70;;;20.50;;
56037;SDS011;41907;47.848;9.000;2022-10-31T16:35:52;38.03;;;22.00;;
56037;SDS011;41907;47.848;9.000;2022-10-31T16:38:18;33.28;;;20.25;;
56037;SDS011;41907;47.848;9.000;2022-10-31T16:40:43;37.78;;;19.30;;
56037;SDS011;41907;47.848;9.000;2022-10-31T16:43:11;31.98;;;17.88;;
56037;SDS011;41907;47.848;9.000;2022-10-31T16:45:37;26.75;;;17.05;;
56037;SDS011;41907;47.848;9.000;2022-10-31T16:48:12;24.58;;;16.48;;
56037;SDS011;41907;47.848;9.000;2022-10-31T16:50:40;25.70;;;16.15;;
56037;SDS011;41907;47.848;9.000;2022-10-31T16:53:07;22.67;;;15.63;;
56037;SDS011;41907;47.848;9.000;2022-10-31T16:55:32;41.40;;;24.55;;
56037;SDS011;41907;47.848;9.000;2022-10-31T16:58:01;76.18;;;39.25;;
56037;SDS011;41907;47.848;9.000;2022-10-31T17:00:26;32.60;;;20.35;;
56037;SDS011;41907;47.848;9.000;2022-10-31T17:02:53;107.32;;;51.13;;
56037;SDS011;41907;47.848;9.000;2022-10-31T17:05:23;69.13;;;34.90;;
56037;SDS011;41907;47.848;9.000;2022-10-31T17:07:54;36.00;;;21.25;;
56037;SDS011;41907;47.848;9.000;2022-10-31T17:10:22;25.25;;;16.10;;
56037;SDS011;41907;47.848;9.000;2022-10-31T17:12:48;21.13;;;14.88;;
56037;SDS011;41907;47.848;9.000;2022-10-31T17:15:16;30.45;;;14.93;;
56037;SDS011;41907;47.848;9.000;2022-10-31T17:17:44;37.33;;;15.88;;
56037;SDS011;41907;47.848;9.000;2022-10-31T17:20:21;36.47;;;16.05;;
56037;SDS011;41907;47.848;9.000;2022-10-31T17:22:50;36.25;;;16.17;;
56037;SDS011;41907;47.848;9.000;2022-10-31T17:25:21;44.28;;;16.30;;
56037;SDS011;41907;47.848;9.000;2022-10-31T17:27:48;33.50;;;16.60;;